Time;durP1;ratioP1;P1;durP2;ratioP2;P2;SDS_P1;SDS_P2;PMS_P1;PMS_P2;Temp;Humidity;BMP_temperature;BMP_pressure;BME280_temperature;BME280_humidity;BME280_pressure;Samples;Min_cycle;Max_cycle;Signal;HPM_P1;HPM_P2
2023/12/20 00:00:39;;;;;;;29.88;8.82;;;;;;;4.45;100.00;101525.59;5081860;28;20375;-69
2023/12/20 00:03:05;;;;;;;28.55;8.07;;;;;;;4.38;100.00;101520.94;5082776;28;20035;-68
2023/12/20 00:05:32;;;;;;;26.45;7.75;;;;;;;4.42;100.00;101525.47;5083144;28;20483;-68
2023/12/20 00:07:57;;;;;;;28.25;7.97;;;;;;;4.29;100.00;101533.66;5081670;28;20032;-68
2023/12/20 00:10:22;;;;;;;28.10;7.55;;;;;;;4.29;100.00;101528.41;5084337;28;20053;-68
2023/12/20 00:12:48;;;;;;;26.92;7.70;;;;;;;4.16;100.00;101537.50;5081235;28;20039;-68
2023/12/20 00:15:13;;;;;;;29.10;7.97;;;;;;;4.15;100.00;101536.59;5083349;28;20027;-68
2023/12/20 00:17:39;;;;;;;27.58;7.68;;;;;;;4.09;100.00;101538.97;5082278;28;20024;-68
2023/12/20 00:20:06;;;;;;;27.63;7.10;;;;;;;4.05;100.00;101544.91;5082386;28;20060;-68
2023/12/20 00:22:31;;;;;;;25.40;7.20;;;;;;;4.08;100.00;101545.03;5082829;28;20382;-68
2023/12/20 00:24:56;;;;;;;26.40;6.93;;;;;;;4.06;100.00;101546.66;5081615;28;20020;-68
2023/12/20 00:27:23;;;;;;;28.63;6.95;;;;;;;4.04;100.00;101532.63;5084080;28;20479;-69
2023/12/20 00:29:49;;;;;;;26.70;6.47;;;;;;;4.04;100.00;101530.03;5062861;28;20029;-69
2023/12/20 00:32:15;;;;;;;28.63;6.57;;;;;;;4.00;100.00;101530.72;5066366;28;20165;-68
2023/12/20 00:34:41;;;;;;;27.45;6.80;;;;;;;3.94;100.00;101530.47;5081644;28;20062;-69
2023/12/20 00:37:06;;;;;;;27.33;6.55;;;;;;;3.86;100.00;101524.91;5082664;28;20032;-69
2023/12/20 00:39:32;;;;;;;25.38;6.78;;;;;;;3.75;100.00;101526.19;5082859;28;20451;-69
2023/12/20 00:41:58;;;;;;;29.00;7.38;;;;;;;3.65;100.00;101523.13;5081378;28;20605;-68
2023/12/20 00:44:23;;;;;;;26.75;7.07;;;;;;;3.59;100.00;101517.66;5083666;28;20036;-69
2023/12/20 00:46:49;;;;;;;27.98;7.50;;;;;;;3.56;100.00;101514.03;5080748;28;20463;-69
2023/12/20 00:49:14;;;;;;;29.88;7.57;;;;;;;3.54;100.00;101513.03;5083557;28;20498;-69
2023/12/20 00:51:39;;;;;;;26.55;6.57;;;;;;;3.53;100.00;101519.13;5081306;28;20028;-70
2023/12/20 00:54:05;;;;;;;26.90;7.18;;;;;;;3.51;100.00;101520.75;5082705;28;20063;-69
2023/12/20 00:56:30;;;;;;;27.23;6.57;;;;;;;3.50;100.00;101498.97;5082585;28;20081;-69
2023/12/20 00:58:55;;;;;;;26.88;6.57;;;;;;;3.46;100.00;101508.38;5081090;28;20028;-70
2023/12/20 01:01:21;;;;;;;25.50;6.10;;;;;;;3.43;100.00;101510.84;5084094;28;20105;-69
2023/12/20 01:03:48;;;;;;;28.08;7.22;;;;;;;3.45;100.00;101519.69;5062141;28;20051;-69
2023/12/20 01:06:13;;;;;;;25.58;6.07;;;;;;;3.51;100.00;101515.53;5083490;28;20557;-69
2023/12/20 01:08:38;;;;;;;28.50;6.32;;;;;;;3.52;100.00;101514.72;5081492;28;20024;-69
2023/12/20 01:11:05;;;;;;;25.08;6.05;;;;;;;3.52;100.00;101509.47;5081894;28;20032;-69
2023/12/20 01:13:31;;;;;;;28.10;6.53;;;;;;;3.54;100.00;101513.97;5082939;28;20028;-69
2023/12/20 01:15:56;;;;;;;27.48;6.50;;;;;;;3.62;100.00;101523.00;5080889;28;20387;-70
2023/12/20 01:18:21;;;;;;;29.00;6.40;;;;;;;3.67;100.00;101531.09;5083968;28;20031;-69
2023/12/20 01:20:47;;;;;;;25.95;5.90;;;;;;;3.67;100.00;101521.50;5080378;28;20504;-69
2023/12/20 01:23:12;;;;;;;27.92;6.40;;;;;;;3.68;100.00;101522.38;5083187;28;20142;-69
2023/12/20 01:25:37;;;;;;;26.27;6.70;;;;;;;3.75;100.00;101528.78;5079548;28;20044;-69
2023/12/20 01:28:03;;;;;;;28.10;6.10;;;;;;;3.78;100.00;101527.19;5085555;28;20497;-68
2023/12/20 01:30:28;;;;;;;30.63;6.53;;;;;;;3.82;100.00;101533.47;5084581;28;20111;-69
2023/12/20 01:32:54;;;;;;;26.80;5.60;;;;;;;3.88;100.00;101530.22;5068681;28;20538;-70
2023/12/20 01:35:19;;;;;;;25.30;6.10;;;;;;;3.89;100.00;101532.91;5065875;28;20464;-69
2023/12/20 01:37:45;;;;;;;24.15;5.75;;;;;;;3.90;100.00;101525.94;5086627;28;20063;-70
2023/12/20 01:40:10;;;;;;;26.27;6.30;;;;;;;3.91;100.00;101530.34;5084455;28;20024;-70
2023/12/20 01:42:36;;;;;;;25.92;5.85;;;;;;;3.86;100.00;101532.75;5085702;28;20490;-69
2023/12/20 01:45:02;;;;;;;26.42;6.50;;;;;;;3.82;100.00;101529.09;5085715;28;20035;-69
2023/12/20 01:47:28;;;;;;;25.85;6.10;;;;;;;3.84;100.00;101532.72;5066460;28;20078;-69
2023/12/20 01:49:53;;;;;;;26.05;6.30;;;;;;;3.81;100.00;101521.19;5086689;28;20028;-69
2023/12/20 01:52:20;;;;;;;28.45;6.93;;;;;;;3.81;100.00;101524.69;5083295;28;20376;-69
2023/12/20 01:54:47;;;;;;;25.58;6.10;;;;;;;3.86;100.00;101526.63;5086880;28;20062;-69
2023/12/20 01:57:13;;;;;;;28.50;6.85;;;;;;;3.82;100.00;101521.25;5083854;28;20131;-69
2023/12/20 01:59:40;;;;;;;28.52;6.53;;;;;;;3.78;100.00;101535.03;5085384;28;20017;-69
2023/12/20 02:02:05;;;;;;;26.85;6.85;;;;;;;3.71;100.00;101525.13;5085024;28;20089;-69
2023/12/20 02:04:31;;;;;;;28.27;6.60;;;;;;;3.65;100.00;101522.25;5083879;28;20091;-69
2023/12/20 02:06:58;;;;;;;28.10;6.82;;;;;;;3.64;100.00;101521.38;5067762;28;20024;-69
2023/12/20 02:09:24;;;;;;;27.90;6.60;;;;;;;3.59;100.00;101527.22;5083308;28;20032;-69
2023/12/20 02:11:49;;;;;;;28.73;7.53;;;;;;;3.65;100.00;101519.66;5086651;28;20031;-68
2023/12/20 02:14:15;;;;;;;29.85;7.20;;;;;;;3.71;100.00;101526.88;5083222;28;20487;-68
2023/12/20 02:16:40;;;;;;;26.75;7.00;;;;;;;3.79;100.00;101536.84;5085488;28;20030;-69
2023/12/20 02:19:12;;;;;;;28.48;7.38;;;;;;;3.82;100.00;101534.34;5084398;28;20406;-69
2023/12/20 02:21:38;;;;;;;26.50;7.30;;;;;;;3.82;100.00;101526.50;5084883;28;20074;-69
2023/12/20 02:24:03;;;;;;;28.25;7.03;;;;;;;3.79;100.00;101521.13;5084862;28;20482;-69
2023/12/20 02:26:29;;;;;;;28.70;7.15;;;;;;;3.76;100.00;101526.25;5083512;28;20566;-69
2023/12/20 02:28:55;;;;;;;27.40;7.25;;;;;;;3.71;100.00;101527.75;5085854;28;20024;-69
2023/12/20 02:31:22;;;;;;;33.28;7.18;;;;;;;3.69;100.00;101516.34;5082876;28;20349;-69
2023/12/20 02:33:47;;;;;;;27.70;7.15;;;;;;;3.70;100.00;101520.75;5085944;28;20471;-69
2023/12/20 02:36:13;;;;;;;29.45;7.10;;;;;;;3.60;100.00;101518.56;5083344;28;20119;-69
2023/12/20 02:38:38;;;;;;;28.73;7.18;;;;;;;3.63;100.00;101516.97;5084283;28;20369;-69
2023/12/20 02:41:03;;;;;;;29.42;7.15;;;;;;;3.58;100.00;101521.13;5084555;28;20386;-69
2023/12/20 02:43:28;;;;;;;29.17;7.53;;;;;;;3.56;100.00;101527.09;5083109;28;20027;-69
2023/12/20 02:45:54;;;;;;;27.10;7.10;;;;;;;3.61;100.00;101522.94;5086002;28;20028;-69
2023/12/20 02:48:19;;;;;;;30.95;7.70;;;;;;;3.62;100.00;101528.25;5082231;28;20035;-70
2023/12/20 02:50:47;;;;;;;29.10;7.80;;;;;;;3.63;100.00;101514.34;5067170;28;20075;-71
2023/12/20 02:53:12;;;;;;;30.13;7.75;;;;;;;3.63;100.00;101522.19;5083048;28;20102;-70
2023/12/20 02:55:37;;;;;;;29.77;7.05;;;;;;;3.59;100.00;101520.28;5083970;28;20040;-70
2023/12/20 02:58:03;;;;;;;28.95;7.38;;;;;;;3.63;100.00;101521.31;5084163;28;20110;-70
2023/12/20 03:00:28;;;;;;;28.27;7.60;;;;;;;3.62;100.00;101516.91;5082727;28;20112;-69
2023/12/20 03:02:53;;;;;;;28.95;7.32;;;;;;;3.60;100.00;101518.56;5067650;28;20507;-70
2023/12/20 03:05:20;;;;;;;27.70;6.72;;;;;;;3.57;100.00;101523.63;5081473;28;20047;-69
2023/12/20 03:07:45;;;;;;;27.95;7.35;;;;;;;3.58;100.00;101514.97;5082153;28;20032;-69
2023/12/20 03:10:11;;;;;;;30.10;7.28;;;;;;;3.56;100.00;101512.28;5084475;28;20475;-69
2023/12/20 03:12:36;;;;;;;30.08;7.35;;;;;;;3.52;100.00;101517.31;5083513;28;20032;-69
2023/12/20 03:15:02;;;;;;;30.65;7.63;;;;;;;3.47;100.00;101512.78;5064874;28;20502;-70
2023/12/20 03:17:27;;;;;;;33.40;8.15;;;;;;;3.52;100.00;101506.88;5084580;28;20107;-70
2023/12/20 03:19:53;;;;;;;29.05;8.00;;;;;;;3.49;100.00;101495.47;5081767;28;20111;-70
2023/12/20 03:22:18;;;;;;;29.73;7.32;;;;;;;3.49;100.00;101492.84;5085292;28;20422;-70
2023/12/20 03:24:43;;;;;;;28.27;7.25;;;;;;;3.49;100.00;101500.69;5082181;28;20032;-70
2023/12/20 03:27:08;;;;;;;26.80;7.18;;;;;;;3.52;100.00;101504.25;5065917;28;20074;-70
2023/12/20 03:29:34;;;;;;;29.23;8.23;;;;;;;3.55;100.00;101492.19;5083393;28;20040;-69
2023/12/20 03:31:59;;;;;;;26.95;8.18;;;;;;;3.58;100.00;101499.28;5082386;28;20036;-69
2023/12/20 03:34:26;;;;;;;30.88;8.00;;;;;;;3.62;100.00;101495.97;5084748;28;20028;-69
2023/12/20 03:36:52;;;;;;;30.52;8.38;;;;;;;3.70;100.00;101484.13;5081363;28;20467;-70
2023/12/20 03:39:17;;;;;;;27.77;7.65;;;;;;;3.77;100.00;101486.19;5084981;28;20028;-70
2023/12/20 03:41:42;;;;;;;28.60;7.93;;;;;;;3.91;100.00;101484.13;5082032;28;20036;-70
2023/12/20 03:44:08;;;;;;;30.80;8.48;;;;;;;3.96;100.00;101485.22;5083368;28;20467;-70
2023/12/20 03:46:33;;;;;;;32.35;8.20;;;;;;;4.00;100.00;101478.38;5083504;28;20433;-69
2023/12/20 03:48:58;;;;;;;31.30;8.02;;;;;;;4.01;100.00;101483.69;5081129;28;20033;-70
2023/12/20 03:51:24;;;;;;;27.80;7.63;;;;;;;4.05;100.00;101481.19;5084409;28;20024;-69
2023/12/20 03:53:49;;;;;;;27.08;7.93;;;;;;;4.07;100.00;101490.91;5081332;28;20027;-79
2023/12/20 03:56:14;;;;;;;29.52;8.10;;;;;;;4.12;100.00;101502.47;5082240;28;20383;-79
2023/12/20 03:58:40;;;;;;;28.60;8.15;;;;;;;4.18;100.00;101497.47;5065966;28;20029;-79
2023/12/20 04:01:10;;;;;;;29.35;7.50;;;;;;;4.22;100.00;101495.84;5083025;28;20157;-80
2023/12/20 04:03:35;;;;;;;29.00;7.78;;;;;;;4.24;100.00;101490.69;5082425;28;20113;-79
2023/12/20 04:06:01;;;;;;;29.48;8.23;;;;;;;4.25;100.00;101488.16;5065453;28;20074;-75
2023/12/20 04:08:26;;;;;;;29.52;7.85;;;;;;;4.26;100.00;101495.16;5081581;28;20032;-72
2023/12/20 04:10:51;;;;;;;28.40;8.35;;;;;;;4.28;100.00;101489.97;5085193;28;20167;-72
2023/12/20 04:13:17;;;;;;;30.45;8.60;;;;;;;4.32;100.00;101491.91;5081535;28;20039;-80
2023/12/20 04:15:42;;;;;;;28.42;8.65;;;;;;;4.34;100.00;101485.00;5066264;28;20035;-79
2023/12/20 04:18:08;;;;;;;27.23;8.10;;;;;;;4.36;100.00;101494.69;5082908;28;20106;-80
2023/12/20 04:20:33;;;;;;;30.77;9.05;;;;;;;4.42;100.00;101493.16;5082847;28;20409;-80
2023/12/20 04:22:58;;;;;;;30.77;8.93;;;;;;;4.42;100.00;101491.44;5080674;28;20037;-80
2023/12/20 04:25:25;;;;;;;28.60;8.02;;;;;;;4.44;100.00;101495.03;5084833;28;20032;-80
2023/12/20 04:27:50;;;;;;;30.80;8.35;;;;;;;4.45;100.00;101488.94;5081511;28;20021;-80
2023/12/20 04:30:15;;;;;;;30.77;8.18;;;;;;;4.48;100.00;101499.53;5085543;28;20055;-79
2023/12/20 04:32:41;;;;;;;28.73;8.38;;;;;;;4.51;100.00;101507.53;5082857;28;20111;-69
2023/12/20 04:35:08;;;;;;;28.38;8.30;;;;;;;4.54;100.00;101509.34;5082515;28;20036;-69
2023/12/20 04:37:33;;;;;;;30.27;8.30;;;;;;;4.59;100.00;101499.97;5081853;28;20029;-69
2023/12/20 04:39:59;;;;;;;29.33;7.47;;;;;;;4.60;100.00;101493.91;5065351;28;20491;-70
2023/12/20 04:42:24;;;;;;;29.75;7.88;;;;;;;4.60;100.00;101499.13;5080689;28;20033;-69
2023/12/20 04:44:49;;;;;;;28.63;7.10;;;;;;;4.65;100.00;101501.94;5066025;28;20028;-69
2023/12/20 04:47:15;;;;;;;27.10;7.50;;;;;;;4.65;100.00;101499.31;5081083;28;20033;-70
2023/12/20 04:49:40;;;;;;;28.98;7.25;;;;;;;4.67;100.00;101505.50;5082875;28;20020;-70
2023/12/20 04:52:05;;;;;;;25.58;6.70;;;;;;;4.69;100.00;101507.34;5082374;28;20028;-70
2023/12/20 04:54:31;;;;;;;27.13;6.60;;;;;;;4.67;100.00;101509.00;5081369;28;20024;-71
2023/12/20 04:56:56;;;;;;;27.13;6.80;;;;;;;4.69;100.00;101507.34;5084074;28;20150;-71
2023/12/20 04:59:21;;;;;;;29.35;6.65;;;;;;;4.70;100.00;101496.03;5080599;28;20044;-70
2023/12/20 05:01:47;;;;;;;27.73;6.40;;;;;;;4.71;100.00;101517.88;5086818;28;20478;-70
2023/12/20 05:04:12;;;;;;;26.15;6.20;;;;;;;4.72;100.00;101486.50;5085163;28;20517;-69
2023/12/20 05:06:38;;;;;;;26.15;6.28;;;;;;;4.70;100.00;101495.13;5086273;28;20020;-70
2023/12/20 05:09:03;;;;;;;28.15;6.57;;;;;;;4.66;100.00;101490.59;5086466;28;20039;-70
2023/12/20 05:11:29;;;;;;;27.92;6.45;;;;;;;4.67;100.00;101484.53;5066582;28;20032;-69
2023/12/20 05:13:54;;;;;;;28.77;6.38;;;;;;;4.64;100.00;101484.41;5087578;28;20035;-69
2023/12/20 05:16:20;;;;;;;27.70;6.13;;;;;;;4.69;100.00;101482.88;5084226;28;20104;-69
2023/12/20 05:18:50;;;;;;;27.80;6.78;;;;;;;4.69;100.00;101475.03;5086800;28;20047;-69
2023/12/20 05:21:15;;;;;;;29.40;6.28;;;;;;;4.68;100.00;101474.13;5084767;28;20383;-70
2023/12/20 05:23:40;;;;;;;29.30;6.40;;;;;;;4.70;100.00;101475.09;5068272;28;20028;-71
2023/12/20 05:26:06;;;;;;;29.15;6.40;;;;;;;4.66;100.00;101481.03;5085724;28;20031;-70
2023/12/20 05:28:31;;;;;;;27.70;5.85;;;;;;;4.65;100.00;101487.09;5083759;28;20111;-70
2023/12/20 05:30:57;;;;;;;28.83;6.43;;;;;;;4.69;100.00;101490.75;5084084;28;20032;-70
2023/12/20 05:33:22;;;;;;;28.00;6.32;;;;;;;4.71;100.00;101491.69;5069114;28;20078;-70
2023/12/20 05:35:48;;;;;;;28.75;6.25;;;;;;;4.71;100.00;101496.91;5084183;28;20075;-72
2023/12/20 05:38:13;;;;;;;24.92;5.75;;;;;;;4.71;100.00;101492.56;5086512;28;20459;-79
2023/12/20 05:40:38;;;;;;;26.85;6.25;;;;;;;4.71;100.00;101483.81;5067212;28;20078;-78
2023/12/20 05:43:04;;;;;;;26.85;6.28;;;;;;;4.70;100.00;101482.94;5084881;28;20028;-80
2023/12/20 05:45:29;;;;;;;26.83;5.75;;;;;;;4.63;100.00;101483.53;5086469;28;20101;-79
2023/12/20 05:47:54;;;;;;;25.30;6.10;;;;;;;4.57;100.00;101477.16;5084102;28;20112;-80
2023/12/20 05:50:21;;;;;;;28.15;6.15;;;;;;;4.51;100.00;101488.28;5066184;28;20086;-80
2023/12/20 05:52:46;;;;;;;29.30;6.43;;;;;;;4.45;100.00;101488.03;5065958;28;20483;-80
2023/12/20 05:55:11;;;;;;;25.75;5.93;;;;;;;4.42;100.00;101482.69;5067840;28;20033;-78
2023/12/20 05:57:37;;;;;;;27.40;6.38;;;;;;;4.34;100.00;101487.63;5085633;28;20029;-80
2023/12/20 06:00:03;;;;;;;27.08;6.00;;;;;;;4.27;100.00;101496.06;5084785;28;20051;-80
2023/12/20 06:02:28;;;;;;;25.80;6.05;;;;;;;4.26;100.00;101496.88;5086703;28;20505;-77
2023/12/20 06:04:54;;;;;;;25.25;6.50;;;;;;;4.18;100.00;101510.56;5087487;28;20066;-80
2023/12/20 06:07:20;;;;;;;25.63;6.35;;;;;;;4.17;100.00;101514.00;5083563;28;20083;-81
2023/12/20 06:09:45;;;;;;;26.52;6.30;;;;;;;4.16;100.00;101516.56;5086455;28;20546;-80
2023/12/20 06:12:11;;;;;;;26.05;6.22;;;;;;;4.22;100.00;101508.06;5084142;28;20040;-80
2023/12/20 06:14:36;;;;;;;27.35;6.68;;;;;;;4.30;100.00;101515.41;5084873;28;20032;-71
2023/12/20 06:17:02;;;;;;;25.17;6.45;;;;;;;4.33;100.00;101504.16;5085939;28;20028;-74
2023/12/20 06:19:28;;;;;;;28.63;6.88;;;;;;;4.33;100.00;101486.72;5083848;28;20032;-76
2023/12/20 06:21:53;;;;;;;27.20;6.70;;;;;;;4.35;100.00;101495.53;5086832;28;20024;-80
2023/12/20 06:24:18;;;;;;;26.65;6.65;;;;;;;4.33;100.00;101493.69;5065320;28;20119;-80
2023/12/20 06:26:44;;;;;;;28.25;6.80;;;;;;;4.23;100.00;101502.00;5085181;28;20064;-80
2023/12/20 06:29:09;;;;;;;26.85;6.70;;;;;;;4.13;100.00;101501.59;5084163;28;20024;-80
2023/12/20 06:31:34;;;;;;;28.02;7.47;;;;;;;4.12;100.00;101499.84;5083885;28;20054;-80
2023/12/20 06:34:00;;;;;;;27.20;7.25;;;;;;;4.14;100.00;101505.13;5085671;28;20029;-77
2023/12/20 06:36:26;;;;;;;26.67;7.15;;;;;;;4.06;100.00;101496.94;5064498;28;20207;-77
2023/12/20 06:38:52;;;;;;;24.60;7.00;;;;;;;4.05;100.00;101492.56;5086561;28;20028;-80
2023/12/20 06:41:17;;;;;;;31.73;7.97;;;;;;;4.09;100.00;101489.25;5083429;28;20036;-78
2023/12/20 06:43:43;;;;;;;28.20;7.90;;;;;;;4.17;100.00;101493.06;5085363;28;20064;-79
2023/12/20 06:46:08;;;;;;;29.33;7.93;;;;;;;4.24;100.00;101493.28;5067103;28;20055;-78
2023/12/20 06:48:34;;;;;;;28.75;8.15;;;;;;;4.29;100.00;101497.00;5083054;28;20109;-79
2023/12/20 06:51:02;;;;;;;30.95;8.85;;;;;;;4.28;100.00;101500.44;5083237;28;20042;-80
2023/12/20 06:53:27;;;;;;;27.88;7.82;;;;;;;4.30;100.00;101493.56;5086097;28;20035;-76
2023/12/20 06:55:52;;;;;;;25.67;7.10;;;;;;;4.34;100.00;101490.25;5082453;28;20471;-79
2023/12/20 06:58:18;;;;;;;29.17;7.97;;;;;;;4.36;100.00;101493.81;5085285;28;20114;-75
2023/12/20 07:00:43;;;;;;;25.98;7.30;;;;;;;4.36;100.00;101485.97;5083180;28;20107;-69
2023/12/20 07:03:09;;;;;;;26.02;7.30;;;;;;;4.38;100.00;101504.34;5083779;28;20408;-69
2023/12/20 07:05:34;;;;;;;27.98;7.15;;;;;;;4.35;100.00;101492.94;5083957;28;20079;-74
2023/12/20 07:08:00;;;;;;;26.08;7.25;;;;;;;4.34;100.00;101488.50;5064622;28;20040;-69
2023/12/20 07:10:25;;;;;;;26.25;7.30;;;;;;;4.28;100.00;101497.84;5085305;28;20036;-69
2023/12/20 07:12:52;;;;;;;27.75;7.43;;;;;;;4.25;100.00;101496.00;5082148;28;20063;-69
2023/12/20 07:15:18;;;;;;;25.83;7.25;;;;;;;4.27;100.00;101488.22;5084654;28;20479;-69
2023/12/20 07:17:43;;;;;;;27.98;7.25;;;;;;;4.34;100.00;101495.50;5082702;28;20032;-69
2023/12/20 07:20:10;;;;;;;29.52;7.85;;;;;;;4.33;100.00;101494.56;5083549;28;20060;-69
2023/12/20 07:22:36;;;;;;;28.00;7.70;;;;;;;4.32;100.00;101489.28;5065599;28;20029;-69
2023/12/20 07:25:01;;;;;;;32.03;7.93;;;;;;;4.35;100.00;101492.00;5082276;28;20023;-69
2023/12/20 07:27:27;;;;;;;28.27;7.10;;;;;;;4.37;100.00;101495.59;5085304;28;20028;-69
2023/12/20 07:29:52;;;;;;;24.20;6.47;;;;;;;4.41;100.00;101496.59;5081408;28;20032;-69
2023/12/20 07:32:18;;;;;;;27.75;7.35;;;;;;;4.40;100.00;101506.19;5084597;28;20028;-70
2023/12/20 07:34:44;;;;;;;29.15;7.30;;;;;;;4.42;100.00;101491.44;5082607;28;20032;-69
2023/12/20 07:37:13;;;;;;;27.98;7.15;;;;;;;4.45;100.00;101501.13;5083445;28;20025;-79
2023/12/20 07:39:40;;;;;;;26.52;6.75;;;;;;;4.44;100.00;101497.63;5067367;28;20024;-80
2023/12/20 07:42:05;;;;;;;28.88;7.60;;;;;;;4.49;100.00;101501.31;5084496;28;20081;-77
2023/12/20 07:44:31;;;;;;;26.02;6.30;;;;;;;4.54;100.00;101491.94;5082760;28;20033;-72
2023/12/20 07:46:57;;;;;;;25.70;6.53;;;;;;;4.57;100.00;101490.25;5081375;28;20025;-79
2023/12/20 07:49:23;;;;;;;23.38;6.15;;;;;;;4.61;100.00;101486.94;5085524;28;20040;-79
2023/12/20 07:51:48;;;;;;;27.98;6.32;;;;;;;4.63;100.00;101488.78;5082555;28;20163;-79
2023/12/20 07:54:13;;;;;;;26.20;6.25;;;;;;;4.72;100.00;101485.63;5084194;28;20035;-80
2023/12/20 07:56:39;;;;;;;25.13;6.45;;;;;;;4.72;100.00;101486.50;5084946;28;20074;-80
2023/12/20 07:59:05;;;;;;;28.70;6.50;;;;;;;4.75;100.00;101490.97;5083315;28;20077;-78
2023/12/20 08:01:31;;;;;;;25.65;6.50;;;;;;;4.76;100.00;101494.47;5081622;28;20028;-79
2023/12/20 08:03:57;;;;;;;27.73;6.40;;;;;;;4.76;100.00;101498.00;5084600;28;20411;-79
2023/12/20 08:06:22;;;;;;;25.27;6.40;;;;;;;4.77;100.00;101502.38;5080870;28;20081;-80
2023/12/20 08:08:48;;;;;;;27.48;6.22;;;;;;;4.81;100.00;101499.06;5084275;28;20082;-77
2023/12/20 08:11:13;;;;;;;25.73;6.50;;;;;;;4.84;100.00;101498.28;5082252;28;20103;-80
2023/12/20 08:13:39;;;;;;;26.30;6.00;;;;;;;4.86;100.00;101507.09;5083262;28;20066;-77
2023/12/20 08:16:04;;;;;;;27.77;6.47;;;;;;;4.89;100.00;101487.16;5084315;28;20066;-78
2023/12/20 08:18:30;;;;;;;25.95;6.43;;;;;;;4.92;100.00;101495.94;5081623;28;20052;-81
2023/12/20 08:20:55;;;;;;;25.10;6.10;;;;;;;4.93;100.00;101503.88;5084937;28;20097;-73
2023/12/20 08:23:23;;;;;;;25.23;6.55;;;;;;;4.93;100.00;101497.75;5081581;28;20090;-71
2023/12/20 08:25:49;;;;;;;26.55;6.82;;;;;;;4.97;100.00;101511.00;5067414;28;20386;-72
2023/12/20 08:28:15;;;;;;;25.20;6.55;;;;;;;4.97;100.00;101504.91;5082625;28;20036;-71
2023/12/20 08:30:40;;;;;;;27.60;6.32;;;;;;;4.98;100.00;101509.28;5083374;28;20032;-79
2023/12/20 08:33:11;;;;;;;24.80;6.75;;;;;;;5.01;100.00;101512.00;5083577;28;20036;-79
2023/12/20 08:35:36;;;;;;;26.17;6.32;;;;;;;5.07;100.00;101512.25;5083818;28;20538;-80
2023/12/20 08:38:02;;;;;;;27.20;6.15;;;;;;;5.09;100.00;101505.34;5088493;28;20124;-74
2023/12/20 08:40:27;;;;;;;24.35;6.20;;;;;;;5.18;100.00;101510.91;5085031;28;20100;-77
2023/12/20 08:42:52;;;;;;;25.80;6.28;;;;;;;5.22;100.00;101511.94;5088823;28;20120;-79
2023/12/20 08:45:17;;;;;;;25.17;6.50;;;;;;;5.26;100.00;101502.44;5086241;28;20107;-78
2023/12/20 08:47:44;;;;;;;26.13;6.15;;;;;;;5.28;100.00;101495.53;5087541;28;20029;-78
2023/12/20 08:50:10;;;;;;;25.02;5.95;;;;;;;5.32;100.00;101495.69;5086710;28;20036;-80
2023/12/20 08:52:36;;;;;;;25.02;5.95;;;;;;;5.35;100.00;101480.06;5086003;28;20081;-69
2023/12/20 08:55:01;;;;;;;25.27;6.15;;;;;;;5.34;100.00;101480.03;5087315;28;20471;-69
2023/12/20 08:57:26;;;;;;;25.23;6.32;;;;;;;5.35;100.00;101474.81;5084327;28;20060;-69
2023/12/20 08:59:52;;;;;;;23.17;6.10;;;;;;;5.35;100.00;101476.56;5087824;28;20032;-69
2023/12/20 09:02:17;;;;;;;26.38;6.03;;;;;;;5.33;100.00;101479.13;5080920;28;20476;-69
2023/12/20 09:04:43;;;;;;;25.65;5.85;;;;;;;5.35;100.00;101487.06;5068516;28;20063;-69
2023/12/20 09:07:25;;;;;;;25.17;5.78;;;;;;;5.36;100.00;101484.50;5086559;28;20061;-70
2023/12/20 09:09:51;;;;;;;24.73;5.90;;;;;;;5.35;100.00;101487.06;5069631;28;20028;-71
2023/12/20 09:12:18;;;;;;;24.40;5.68;;;;;;;5.34;100.00;101482.66;5084689;28;20064;-70
2023/12/20 09:14:44;;;;;;;25.23;5.85;;;;;;;5.31;100.00;101495.66;5086571;28;20063;-69
2023/12/20 09:17:11;;;;;;;24.10;6.50;;;;;;;5.33;100.00;101486.09;5085822;28;20058;-70
2023/12/20 09:19:36;;;;;;;26.15;6.30;;;;;;;5.31;100.00;101483.41;5085168;28;20077;-69
2023/12/20 09:22:02;;;;;;;24.55;5.85;;;;;;;5.37;100.00;101474.88;5086902;28;20024;-70
2023/12/20 09:24:27;;;;;;;23.55;5.90;;;;;;;5.35;100.00;101484.44;5083831;28;20032;-70
2023/12/20 09:26:52;;;;;;;24.83;6.03;;;;;;;5.34;100.00;101480.91;5083846;28;20036;-70
2023/12/20 09:29:18;;;;;;;25.23;5.90;;;;;;;5.36;100.00;101483.59;5087021;28;20032;-68
2023/12/20 09:31:46;;;;;;;24.90;5.82;;;;;;;5.36;100.00;101474.00;5084831;28;20089;-68
2023/12/20 09:34:11;;;;;;;23.73;5.80;;;;;;;5.41;100.00;101484.66;5067452;28;20021;-69
2023/12/20 09:36:38;;;;;;;25.30;5.90;;;;;;;5.42;100.00;101486.44;5086100;28;20569;-69
2023/12/20 09:39:04;;;;;;;23.75;6.10;;;;;;;5.44;100.00;101482.13;5066986;28;20032;-69
2023/12/20 09:41:37;;;;;;;27.35;6.10;;;;;;;5.43;100.00;101467.22;5086707;28;20397;-70
2023/12/20 09:44:03;;;;;;;25.50;6.57;;;;;;;5.46;100.00;101483.09;5084281;28;20063;-68
2023/12/20 09:46:32;;;;;;;25.90;6.18;;;;;;;5.48;100.00;101484.03;5086444;28;20055;-68
2023/12/20 09:49:00;;;;;;;25.40;5.50;;;;;;;5.50;100.00;101482.34;5082992;28;20028;-69
2023/12/20 09:51:28;;;;;;;22.92;5.60;;;;;;;5.54;100.00;101488.59;5086959;28;20111;-69
2023/12/20 09:53:55;;;;;;;24.73;5.88;;;;;;;5.55;100.00;101480.78;5052686;28;20138;-70
2023/12/20 09:56:21;;;;;;;23.63;5.65;;;;;;;5.62;100.00;101475.75;5083598;28;20028;-70
2023/12/20 09:58:47;;;;;;;24.65;5.60;;;;;;;5.63;100.00;101469.66;5085976;28;20552;-69
2023/12/20 10:01:13;;;;;;;25.95;6.05;;;;;;;5.65;100.00;101473.22;5084068;28;20032;-70
2023/12/20 10:03:40;;;;;;;24.00;5.60;;;;;;;5.71;100.00;101468.22;5084404;28;20028;-71
2023/12/20 10:06:06;;;;;;;23.50;5.43;;;;;;;5.75;100.00;101467.44;5085702;28;20028;-71
2023/12/20 10:08:32;;;;;;;25.80;5.45;;;;;;;5.83;100.00;101475.59;5084211;28;20170;-75
2023/12/20 10:11:02;;;;;;;23.27;5.00;;;;;;;5.89;100.00;101486.31;5087046;28;20482;-75
2023/12/20 10:13:28;;;;;;;21.95;5.10;;;;;;;5.92;100.00;101470.66;5083448;28;20040;-78
2023/12/20 10:15:55;;;;;;;24.63;5.35;;;;;;;5.96;100.00;101472.53;5066441;28;20470;-70
2023/12/20 10:18:21;;;;;;;26.38;5.63;;;;;;;5.99;100.00;101470.06;5085205;28;20024;-77
2023/12/20 10:20:47;;;;;;;22.77;5.00;;;;;;;6.05;100.00;101451.88;5084996;28;20031;-69
2023/12/20 10:23:13;;;;;;;24.45;5.18;;;;;;;6.05;100.00;101462.38;5086411;28;20024;-68
2023/12/20 10:25:40;;;;;;;24.42;5.45;;;;;;;6.05;100.00;101461.50;5083161;28;20083;-69
2023/12/20 10:28:13;;;;;;;22.15;5.15;;;;;;;6.09;100.00;101471.25;5084505;28;20068;-69
2023/12/20 10:30:39;;;;;;;23.40;5.18;;;;;;;6.10;100.00;101454.63;5083948;28;20505;-69
2023/12/20 10:33:09;;;;;;;25.02;5.30;;;;;;;6.14;100.00;101461.78;5084237;28;20085;-69
2023/12/20 10:35:35;;;;;;;23.73;5.43;;;;;;;6.13;100.00;101460.03;5084301;28;20028;-69
2023/12/20 10:38:05;;;;;;;24.27;5.35;;;;;;;6.07;100.00;101463.34;5083822;28;20028;-69
2023/12/20 10:40:31;;;;;;;24.50;5.28;;;;;;;6.05;100.00;101451.88;5084918;28;20035;-68
2023/12/20 10:42:58;;;;;;;23.83;5.47;;;;;;;6.04;100.00;101450.13;5082895;28;20025;-68
2023/12/20 10:45:23;;;;;;;26.30;6.07;;;;;;;6.03;100.00;101452.66;5086015;28;20032;-69
2023/12/20 10:47:50;;;;;;;25.08;5.63;;;;;;;6.01;100.00;101462.22;5082324;28;20056;-68
2023/12/20 10:50:16;;;;;;;24.67;5.63;;;;;;;5.98;100.00;101452.50;5085494;28;20060;-68
2023/12/20 10:52:42;;;;;;;23.63;5.22;;;;;;;6.01;100.00;101449.97;5065100;28;20485;-69
2023/12/20 10:55:08;;;;;;;26.88;6.03;;;;;;;6.01;100.00;101447.34;5084258;28;20020;-69
2023/12/20 10:57:36;;;;;;;25.42;5.68;;;;;;;6.06;100.00;101439.66;5083859;28;20111;-68
2023/12/20 11:00:04;;;;;;;24.70;5.78;;;;;;;6.08;100.00;101435.34;5083476;28;20379;-69
2023/12/20 11:02:32;;;;;;;23.52;5.30;;;;;;;6.11;100.00;101431.06;5084438;28;20501;-69
2023/12/20 11:05:19;;;;;;;24.35;5.75;;;;;;;6.14;100.00;101427.66;5082494;28;20079;-69
2023/12/20 11:07:56;;;;;;;22.73;5.40;;;;;;;6.14;100.00;101414.53;5082267;28;20028;-69
2023/12/20 11:10:28;;;;;;;24.10;5.78;;;;;;;6.10;100.00;101431.00;5069009;28;20024;-69